createdAt,value
2018-10-11T00:00:02.840Z,14.60
2018-10-11T00:02:31.586Z,14.50
2018-10-11T00:05:00.599Z,14.50
2018-10-11T00:07:29.610Z,14.50
2018-10-11T00:09:58.303Z,14.40
2018-10-11T00:12:27.120Z,14.40
2018-10-11T00:14:56.173Z,14.40
2018-10-11T00:17:24.904Z,14.30
2018-10-11T00:19:53.688Z,14.30
2018-10-11T00:22:23.022Z,14.30
2018-10-11T00:24:52.042Z,14.30
2018-10-11T00:27:21.086Z,14.30
2018-10-11T00:29:50.152Z,14.30
2018-10-11T00:32:19.232Z,14.30
2018-10-11T00:34:48.269Z,14.30
2018-10-11T00:37:17.347Z,14.30
2018-10-11T00:39:46.365Z,14.20
2018-10-11T00:42:15.511Z,14.30
2018-10-11T00:44:44.539Z,14.20
2018-10-11T00:47:13.580Z,14.20
2018-10-11T00:49:42.669Z,14.20
2018-10-11T00:52:11.682Z,14.10
2018-10-11T00:54:40.381Z,14.10
2018-10-11T00:57:09.465Z,14.10
2018-10-11T00:59:38.360Z,14.10
2018-10-11T01:02:07.600Z,14.10
2018-10-11T01:04:36.647Z,14.10
2018-10-11T01:07:05.064Z,14.00
2018-10-11T01:09:34.134Z,14.00
2018-10-11T01:12:03.138Z,14.00
2018-10-11T01:14:32.422Z,14.00
2018-10-11T01:17:01.490Z,13.90
2018-10-11T01:19:30.286Z,13.90
2018-10-11T01:21:59.035Z,14.00
2018-10-11T01:24:28.134Z,13.90
2018-10-11T01:26:56.521Z,13.90
2018-10-11T01:29:25.598Z,13.80
2018-10-11T01:31:54.821Z,13.80
2018-10-11T01:34:23.549Z,13.80
2018-10-11T01:36:52.316Z,13.80
2018-10-11T01:39:20.706Z,13.80
2018-10-11T01:41:49.061Z,13.70
2018-10-11T01:44:17.441Z,13.70
2018-10-11T01:46:45.855Z,13.60
2018-10-11T01:49:14.569Z,13.60
2018-10-11T01:51:43.690Z,13.60
2018-10-11T01:54:12.387Z,13.50
2018-10-11T01:56:41.111Z,13.50
2018-10-11T01:59:10.319Z,13.50
2018-10-11T02:01:39.361Z,13.50
2018-10-11T02:04:08.078Z,13.40
2018-10-11T02:06:36.433Z,13.30
2018-10-11T02:09:05.888Z,13.30
2018-10-11T02:11:34.979Z,13.30
2018-10-11T02:14:04.082Z,13.30
2018-10-11T02:16:33.118Z,13.20
2018-10-11T02:19:01.473Z,13.20
2018-10-11T02:21:30.205Z,13.20
2018-10-11T02:23:59.289Z,13.20
2018-10-11T02:26:28.323Z,13.20
2018-10-11T02:28:57.046Z,13.20
2018-10-11T02:31:26.274Z,13.20
2018-10-11T02:33:55.470Z,13.20
2018-10-11T02:36:24.499Z,13.20
2018-10-11T02:38:53.418Z,13.20
2018-10-11T02:41:21.814Z,13.20
2018-10-11T02:43:50.837Z,13.20
2018-10-11T02:46:19.909Z,13.10
2018-10-11T02:48:48.953Z,13.10
2018-10-11T02:51:18.118Z,13.10
2018-10-11T02:53:46.821Z,13.10
2018-10-11T02:56:15.169Z,13.10
2018-10-11T02:58:55.005Z,13.10
2018-10-11T03:01:23.465Z,13.10
2018-10-11T03:03:54.473Z,13.00
2018-10-11T03:06:23.164Z,13.00
2018-10-11T03:08:51.562Z,13.00
2018-10-11T03:11:19.939Z,12.90
2018-10-11T03:13:48.966Z,12.90
2018-10-11T03:16:17.390Z,12.90
2018-10-11T03:18:46.434Z,12.90
2018-10-11T03:21:15.145Z,12.90
2018-10-11T03:23:43.826Z,12.90
2018-10-11T03:26:12.526Z,12.90
2018-10-11T03:28:41.582Z,12.90
2018-10-11T03:31:10.289Z,12.90
2018-10-11T03:33:38.977Z,12.80
2018-10-11T03:36:08.125Z,12.80
2018-10-11T03:38:37.170Z,12.80
2018-10-11T03:41:05.963Z,12.80
2018-10-11T03:43:34.625Z,12.80
2018-10-11T03:46:03.645Z,12.80
2018-10-11T03:48:32.566Z,12.80
2018-10-11T03:51:01.289Z,12.80
2018-10-11T03:53:30.322Z,12.70
2018-10-11T03:55:59.345Z,12.70
2018-10-11T03:58:28.105Z,12.70
2018-10-11T04:00:56.817Z,12.70
2018-10-11T04:03:25.221Z,12.70
2018-10-11T04:05:53.942Z,12.60
2018-10-11T04:08:22.994Z,12.60
2018-10-11T04:10:51.678Z,12.60
2018-10-11T04:13:20.754Z,12.60
2018-10-11T04:15:49.117Z,12.50
2018-10-11T04:18:17.798Z,12.60
2018-10-11T04:20:46.841Z,12.50
2018-10-11T04:23:21.361Z,12.50
2018-10-11T04:25:50.358Z,12.50
2018-10-11T04:28:19.405Z,12.50
2018-10-11T04:30:48.443Z,12.40
2018-10-11T04:33:17.447Z,12.40
2018-10-11T04:35:46.713Z,12.40
2018-10-11T04:38:15.135Z,12.40
2018-10-11T04:40:44.141Z,12.40
2018-10-11T04:43:13.766Z,12.40
2018-10-11T04:45:43.934Z,12.40
2018-10-11T04:48:13.309Z,12.40
2018-10-11T04:50:43.641Z,12.40
2018-10-11T04:53:13.806Z,12.40
2018-10-11T04:55:43.837Z,12.40
2018-10-11T04:58:12.877Z,12.40
2018-10-11T05:00:41.718Z,12.40
2018-10-11T05:03:11.882Z,12.40
2018-10-11T05:05:41.356Z,12.50
2018-10-11T05:08:10.285Z,12.50
2018-10-11T05:10:39.018Z,12.60
2018-10-11T05:13:07.441Z,12.50
2018-10-11T05:15:37.162Z,12.50
2018-10-11T05:18:06.683Z,12.50
2018-10-11T05:20:35.001Z,12.40
2018-10-11T05:23:03.340Z,12.40
2018-10-11T05:25:31.705Z,12.40
2018-10-11T05:28:00.277Z,12.40
2018-10-11T05:30:29.031Z,12.40
2018-10-11T05:32:57.430Z,12.40
2018-10-11T05:35:26.453Z,12.40
2018-10-11T05:37:55.465Z,12.40
2018-10-11T05:40:24.150Z,12.40
2018-10-11T05:42:52.528Z,12.40
2018-10-11T05:45:22.445Z,12.40
2018-10-11T05:47:50.825Z,12.50
2018-10-11T05:50:19.303Z,12.50
2018-10-11T05:52:47.993Z,12.50
2018-10-11T05:55:16.357Z,12.50
2018-10-11T05:57:45.117Z,12.50
2018-10-11T06:00:13.658Z,12.60
2018-10-11T06:02:53.487Z,12.60
2018-10-11T06:05:21.891Z,12.60
2018-10-11T06:07:50.834Z,12.70
2018-10-11T06:10:19.251Z,12.80
2018-10-11T06:12:47.617Z,12.80
2018-10-11T06:15:16.022Z,12.90
2018-10-11T06:17:45.025Z,13.10
2018-10-11T06:20:14.068Z,13.20
2018-10-11T06:22:42.450Z,13.20
2018-10-11T06:25:11.418Z,13.30
2018-10-11T06:27:40.677Z,13.40
2018-10-11T06:30:09.050Z,13.40
2018-10-11T06:32:37.645Z,13.40
2018-10-11T06:35:06.461Z,13.50
2018-10-11T06:37:34.922Z,13.60
2018-10-11T06:40:03.258Z,13.70
2018-10-11T06:42:31.722Z,13.80
2018-10-11T06:45:00.201Z,13.90
2018-10-11T06:47:29.202Z,14.10
2018-10-11T06:49:57.951Z,14.30
2018-10-11T06:52:26.510Z,14.50
2018-10-11T06:54:54.557Z,14.90
2018-10-11T06:57:23.317Z,15.20
2018-10-11T06:59:52.274Z,15.60
2018-10-11T07:02:20.723Z,15.90
2018-10-11T07:04:49.487Z,16.40
2018-10-11T07:07:18.293Z,16.70
2018-10-11T07:09:47.259Z,17.00
2018-10-11T07:13:40.315Z,17.00
2018-10-11T07:16:08.710Z,17.10
2018-10-11T07:18:37.421Z,17.50
2018-10-11T07:21:05.560Z,17.70
2018-10-11T07:23:34.379Z,18.00
2018-10-11T07:26:02.858Z,18.10
2018-10-11T07:28:31.430Z,18.40
2018-10-11T07:31:00.213Z,18.50
2018-10-11T07:33:28.976Z,18.70
2018-10-11T07:35:57.705Z,18.90
2018-10-11T07:38:26.538Z,18.70
2018-10-11T07:40:55.601Z,18.60
2018-10-11T07:43:24.485Z,18.90
2018-10-11T07:45:53.223Z,19.40
2018-10-11T07:48:21.619Z,19.70
2018-10-11T07:50:50.478Z,20.00
2018-10-11T07:53:19.210Z,20.30
2018-10-11T07:55:47.614Z,20.50
2018-10-11T07:58:16.337Z,20.50
2018-10-11T08:00:44.743Z,20.30
2018-10-11T08:03:13.433Z,20.50
2018-10-11T08:05:42.151Z,20.30
2018-10-11T08:08:10.881Z,20.30
2018-10-11T08:10:39.526Z,20.40
2018-10-11T08:13:08.302Z,20.50
2018-10-11T08:15:36.713Z,20.50
2018-10-11T08:18:05.714Z,20.70
2018-10-11T08:20:33.890Z,20.70
2018-10-11T08:23:02.712Z,20.70
2018-10-11T08:25:31.867Z,21.00
2018-10-11T08:28:00.280Z,21.20
2018-10-11T08:30:28.361Z,21.30
2018-10-11T08:32:57.129Z,20.80
2018-10-11T08:35:26.017Z,20.80
2018-10-11T08:37:54.193Z,21.00
2018-10-11T08:40:22.530Z,21.40
2018-10-11T08:42:51.305Z,21.80
2018-10-11T08:45:19.789Z,22.10
2018-10-11T08:47:48.553Z,21.90
2018-10-11T08:50:16.645Z,21.70
2018-10-11T08:52:45.543Z,21.80
2018-10-11T08:55:14.284Z,22.20
2018-10-11T08:57:43.017Z,22.40
2018-10-11T09:00:11.437Z,22.70
2018-10-11T09:02:40.237Z,23.10
2018-10-11T09:05:08.685Z,23.60
2018-10-11T09:07:37.235Z,23.50
2018-10-11T09:10:05.303Z,23.80
2018-10-11T09:12:33.770Z,23.70
2018-10-11T09:15:02.234Z,23.40
2018-10-11T09:17:31.022Z,23.90
2018-10-11T09:19:59.513Z,23.70
2018-10-11T09:22:28.646Z,24.20
2018-10-11T09:24:57.561Z,24.40
2018-10-11T09:27:25.755Z,24.60
2018-10-11T09:29:54.205Z,24.30
2018-10-11T09:32:22.617Z,24.60
2018-10-11T09:34:51.416Z,24.70
2018-10-11T09:37:20.166Z,24.70
2018-10-11T09:39:48.598Z,24.20
2018-10-11T09:42:17.385Z,23.80
2018-10-11T09:44:45.585Z,23.30
2018-10-11T09:47:14.446Z,23.30
2018-10-11T09:49:43.173Z,23.00
2018-10-11T09:52:11.953Z,23.10
2018-10-11T09:54:40.662Z,23.10
2018-10-11T09:57:19.564Z,22.80
2018-10-11T09:59:48.008Z,22.70
2018-10-11T10:02:16.701Z,22.70
2018-10-11T10:04:46.622Z,22.70
2018-10-11T10:07:15.080Z,22.60
2018-10-11T10:09:44.625Z,22.50
2018-10-11T10:12:13.382Z,22.40
2018-10-11T10:14:42.465Z,22.50
2018-10-11T10:17:10.593Z,22.50
2018-10-11T10:19:39.025Z,22.50
2018-10-11T10:22:07.200Z,22.60
2018-10-11T10:24:36.470Z,22.80
2018-10-11T10:27:04.329Z,22.80
2018-10-11T10:29:33.457Z,22.80
2018-10-11T10:32:03.271Z,22.70
2018-10-11T10:34:32.282Z,22.60
2018-10-11T10:37:02.896Z,22.60
2018-10-11T10:39:31.641Z,22.60
2018-10-11T10:41:59.733Z,22.70
2018-10-11T10:44:28.338Z,22.70
2018-10-11T10:46:56.776Z,22.80
2018-10-11T10:49:25.616Z,23.00
2018-10-11T10:51:54.370Z,23.10
2018-10-11T10:54:30.886Z,23.20
2018-10-11T10:56:59.998Z,23.30
2018-10-11T10:59:28.910Z,23.50
2018-10-11T11:01:57.646Z,23.80
2018-10-11T11:04:26.030Z,24.30
2018-10-11T11:06:54.866Z,24.50
2018-10-11T11:09:23.513Z,25.00
2018-10-11T11:11:51.801Z,25.30
2018-10-11T11:14:20.557Z,25.60
2018-10-11T11:16:49.307Z,25.80
2018-10-11T11:19:18.096Z,26.70
2018-10-11T11:21:46.191Z,27.40
2018-10-11T11:24:14.585Z,27.80
2018-10-11T11:26:43.376Z,28.30
2018-10-11T11:29:12.136Z,28.60
2018-10-11T11:31:40.876Z,29.20
2018-10-11T11:34:09.293Z,28.90
2018-10-11T11:36:38.100Z,28.60
2018-10-11T11:39:08.203Z,28.90
2018-10-11T11:41:36.889Z,29.00
2018-10-11T11:44:06.088Z,29.20
2018-10-11T11:46:34.845Z,29.10
2018-10-11T11:49:03.639Z,29.50
2018-10-11T11:51:32.081Z,29.60
2018-10-11T11:54:01.532Z,30.10
2018-10-11T11:56:31.377Z,30.60
2018-10-11T11:59:01.414Z,31.00
2018-10-11T12:01:30.481Z,30.90
2018-10-11T12:03:59.101Z,30.50
2018-10-11T12:06:27.536Z,30.30
2018-10-11T12:08:56.456Z,30.90
2018-10-11T12:11:24.570Z,31.80
2018-10-11T12:13:53.316Z,31.70
2018-10-11T12:16:21.700Z,31.20
2018-10-11T12:18:56.946Z,32.20
2018-10-11T12:21:25.385Z,31.60
2018-10-11T12:23:54.117Z,31.10
2018-10-11T12:26:22.644Z,30.90
2018-10-11T12:28:51.486Z,30.50
2018-10-11T12:31:21.337Z,31.00
2018-10-11T12:33:50.373Z,31.50
2018-10-11T12:36:18.947Z,31.90
2018-10-11T12:38:48.316Z,32.20
2018-10-11T12:41:17.105Z,32.30
2018-10-11T12:43:47.128Z,32.10
2018-10-11T12:46:15.613Z,31.90
2018-10-11T12:48:44.673Z,32.40
2018-10-11T12:51:13.066Z,32.80
2018-10-11T12:53:44.329Z,32.20
2018-10-11T12:56:10.348Z,31.30
2018-10-11T12:58:39.613Z,30.50
2018-10-11T13:01:07.739Z,31.10
2018-10-11T13:03:37.134Z,31.80
2018-10-11T13:06:05.569Z,32.40
2018-10-11T13:08:34.326Z,32.60
2018-10-11T13:11:03.043Z,32.50
2018-10-11T13:13:31.458Z,32.70
2018-10-11T13:16:02.267Z,33.20
2018-10-11T13:18:29.178Z,32.70
2018-10-11T13:20:57.725Z,32.40
2018-10-11T13:23:26.482Z,32.00
2018-10-11T13:25:55.211Z,32.00
2018-10-11T13:28:23.974Z,31.50
2018-10-11T13:30:52.949Z,31.00
2018-10-11T13:33:22.334Z,31.00
2018-10-11T13:35:51.074Z,31.30
2018-10-11T13:38:20.000Z,31.30
2018-10-11T13:40:48.698Z,31.20
2018-10-11T13:43:18.525Z,31.10
2018-10-11T13:45:49.876Z,31.30
2018-10-11T13:48:17.165Z,31.40
2018-10-11T13:50:46.018Z,31.60
2018-10-11T13:53:19.456Z,32.00
2018-10-11T13:55:48.706Z,32.50
2018-10-11T13:58:12.357Z,32.40
2018-10-11T14:00:41.803Z,32.80
2018-10-11T14:03:10.829Z,32.10
2018-10-11T14:05:39.229Z,31.80
2018-10-11T14:08:08.254Z,31.60
2018-10-11T14:10:37.116Z,32.30
2018-10-11T14:13:12.985Z,32.50
2018-10-11T14:15:35.505Z,32.30
2018-10-11T14:18:09.287Z,32.10
2018-10-11T14:20:32.630Z,32.30
2018-10-11T14:23:01.443Z,32.10
2018-10-11T14:25:29.857Z,31.90
2018-10-11T14:27:58.284Z,31.80
2018-10-11T14:30:26.393Z,31.30
2018-10-11T14:32:54.837Z,31.40
2018-10-11T14:35:23.736Z,31.80
2018-10-11T14:37:52.173Z,31.50
2018-10-11T14:40:20.953Z,31.10
2018-10-11T14:42:49.378Z,31.30
2018-10-11T14:45:18.175Z,31.80
2018-10-11T14:47:46.766Z,32.10
2018-10-11T14:50:15.742Z,32.00
2018-10-11T14:52:44.555Z,31.30
2018-10-11T14:55:12.961Z,30.80
2018-10-11T14:57:41.768Z,30.50
2018-10-11T15:00:10.328Z,30.70
2018-10-11T15:02:38.736Z,30.30
2018-10-11T15:05:07.410Z,30.20
2018-10-11T15:07:35.493Z,30.60
2018-10-11T15:10:04.122Z,30.30
2018-10-11T15:12:32.755Z,29.70
2018-10-11T15:15:01.361Z,29.60
2018-10-11T15:17:30.094Z,29.60
2018-10-11T15:19:58.881Z,29.30
2018-10-11T15:22:27.663Z,29.60
2018-10-11T15:24:56.288Z,29.30
2018-10-11T15:27:25.236Z,29.30
2018-10-11T15:29:53.765Z,29.40
2018-10-11T15:32:22.673Z,28.70
2018-10-11T15:34:51.838Z,27.80
2018-10-11T15:37:20.773Z,27.00
2018-10-11T15:39:49.192Z,26.30
2018-10-11T15:42:17.351Z,25.70
2018-10-11T15:44:46.121Z,25.30
2018-10-11T15:47:14.837Z,25.30
2018-10-11T15:49:43.306Z,25.50
2018-10-11T15:52:12.188Z,25.60
2018-10-11T15:54:41.145Z,25.60
2018-10-11T15:57:09.699Z,25.50
2018-10-11T15:59:38.443Z,25.50
2018-10-11T16:02:06.908Z,25.30
2018-10-11T16:04:35.406Z,25.20
2018-10-11T16:07:04.257Z,24.80
2018-10-11T16:09:32.856Z,24.50
2018-10-11T16:12:01.544Z,24.40
2018-10-11T16:14:29.845Z,24.20
2018-10-11T16:16:58.633Z,24.00
2018-10-11T16:19:26.910Z,23.80
2018-10-11T16:21:55.717Z,23.60
2018-10-11T16:24:24.485Z,23.50
2018-10-11T16:26:52.969Z,23.40
2018-10-11T16:29:22.178Z,23.40
2018-10-11T16:31:50.595Z,23.20
2018-10-11T16:34:19.332Z,23.00
2018-10-11T16:36:48.393Z,22.70
2018-10-11T16:39:17.521Z,22.50
2018-10-11T16:41:46.380Z,22.20
2018-10-11T16:44:14.819Z,22.10
2018-10-11T16:46:43.662Z,22.00
2018-10-11T16:49:12.404Z,21.80
2018-10-11T16:51:40.780Z,21.80
2018-10-11T16:54:09.224Z,21.70
2018-10-11T16:56:37.975Z,21.70
2018-10-11T16:59:06.201Z,21.60
2018-10-11T17:01:35.237Z,21.50
2018-10-11T17:04:03.477Z,21.40
2018-10-11T17:06:32.493Z,21.50
2018-10-11T17:09:01.265Z,21.40
2018-10-11T17:11:30.073Z,21.30
2018-10-11T17:13:58.841Z,21.10
2018-10-11T17:16:27.699Z,20.90
2018-10-11T17:18:56.422Z,20.90
2018-10-11T17:21:25.263Z,20.80
2018-10-11T17:23:54.166Z,20.80
2018-10-11T17:26:22.598Z,20.70
2018-10-11T17:28:51.700Z,20.50
2018-10-11T17:31:20.465Z,20.50
2018-10-11T17:33:49.215Z,20.30
2018-10-11T17:36:17.729Z,20.20
2018-10-11T17:38:47.501Z,20.20
2018-10-11T17:41:16.015Z,20.10
2018-10-11T17:43:44.838Z,20.10
2018-10-11T17:46:13.406Z,20.00
2018-10-11T17:48:41.893Z,19.90
2018-10-11T17:51:10.721Z,19.90
2018-10-11T17:53:39.477Z,19.80
2018-10-11T17:56:07.637Z,19.80
2018-10-11T17:58:36.534Z,19.80
2018-10-11T18:01:05.337Z,19.80
2018-10-11T18:03:34.115Z,19.70
2018-10-11T18:06:02.661Z,19.60
2018-10-11T18:08:31.883Z,19.50
2018-10-11T18:11:00.671Z,19.40
2018-10-11T18:13:29.809Z,19.30
2018-10-11T18:15:58.773Z,19.30
2018-10-11T18:18:27.564Z,19.20
2018-10-11T18:20:55.721Z,19.10
2018-10-11T18:23:24.269Z,19.10
2018-10-11T18:25:52.701Z,19.10
2018-10-11T18:28:21.598Z,19.10
2018-10-11T18:30:50.369Z,19.00
2018-10-11T18:33:19.171Z,19.00
2018-10-11T18:35:47.402Z,18.90
2018-10-11T18:38:16.739Z,18.90
2018-10-11T18:40:45.546Z,18.80
2018-10-11T18:43:14.302Z,18.70
2018-10-11T18:45:42.456Z,18.70
2018-10-11T18:48:11.217Z,18.70
2018-10-11T18:50:40.520Z,18.60
2018-10-11T18:53:09.478Z,18.60
2018-10-11T18:55:37.950Z,18.50
2018-10-11T18:58:06.469Z,18.50
2018-10-11T19:00:34.696Z,18.40
2018-10-11T19:03:03.505Z,18.40
2018-10-11T19:05:32.256Z,18.30
2018-10-11T19:08:01.044Z,18.20
2018-10-11T19:10:29.607Z,18.20
2018-10-11T19:12:58.046Z,18.20
2018-10-11T19:15:26.813Z,18.10
2018-10-11T19:17:55.246Z,18.10
2018-10-11T19:20:23.523Z,18.00
2018-10-11T19:22:52.091Z,18.00
2018-10-11T19:25:20.599Z,17.90
2018-10-11T19:27:49.302Z,17.90
2018-10-11T19:30:18.142Z,17.80
2018-10-11T19:32:46.917Z,17.70
2018-10-11T19:35:15.690Z,17.70
2018-10-11T19:37:44.234Z,17.60
2018-10-11T19:40:13.159Z,17.60
2018-10-11T19:42:41.846Z,17.60
2018-10-11T19:45:10.692Z,17.60
2018-10-11T19:47:39.518Z,17.50
2018-10-11T19:50:08.396Z,17.40
2018-10-11T19:52:37.029Z,17.40
2018-10-11T19:55:05.292Z,17.40
2018-10-11T19:57:33.760Z,17.30
2018-10-11T20:00:02.588Z,17.30
2018-10-11T20:02:31.551Z,17.30
2018-10-11T20:05:00.125Z,17.20
2018-10-11T20:07:28.286Z,17.10
2018-10-11T20:09:57.223Z,17.10
2018-10-11T20:12:25.844Z,17.10
2018-10-11T20:14:54.674Z,17.10
2018-10-11T20:17:23.707Z,17.10
2018-10-11T20:19:51.951Z,17.10
2018-10-11T20:22:20.813Z,17.00
2018-10-11T20:24:49.276Z,17.00
2018-10-11T20:27:17.867Z,17.00
2018-10-11T20:29:46.341Z,16.90
2018-10-11T20:32:15.279Z,16.90
2018-10-11T20:34:44.479Z,16.90
2018-10-11T20:37:12.969Z,16.80
2018-10-11T20:39:41.810Z,16.70
2018-10-11T20:42:10.908Z,16.70
2018-10-11T20:44:39.804Z,16.70
2018-10-11T20:47:08.697Z,16.70
2018-10-11T20:49:37.636Z,16.70
2018-10-11T20:52:06.470Z,16.60
2018-10-11T20:54:34.783Z,16.60
2018-10-11T20:57:03.777Z,16.60
2018-10-11T20:59:32.726Z,16.60
2018-10-11T21:02:01.154Z,16.60
2018-10-11T21:04:30.105Z,16.50
2018-10-11T21:06:58.912Z,16.50
2018-10-11T21:09:27.756Z,16.50
2018-10-11T21:11:57.543Z,16.40
2018-10-11T21:14:26.035Z,16.40
2018-10-11T21:16:55.945Z,16.30
2018-10-11T21:19:24.778Z,16.20
2018-10-11T21:21:54.445Z,16.20
2018-10-11T21:24:23.295Z,16.30
2018-10-11T21:26:52.079Z,16.20
2018-10-11T21:29:20.692Z,16.20
2018-10-11T21:31:49.526Z,16.20
2018-10-11T21:34:19.456Z,16.10
2018-10-11T21:36:48.036Z,16.10
2018-10-11T21:39:16.646Z,16.10
2018-10-11T21:41:45.096Z,16.10
2018-10-11T21:44:13.893Z,16.10
2018-10-11T21:46:42.217Z,16.00
2018-10-11T21:49:11.691Z,16.00
2018-10-11T21:51:40.443Z,16.00
2018-10-11T21:54:09.000Z,16.00
2018-10-11T21:56:37.485Z,15.90
2018-10-11T21:59:06.087Z,15.90
2018-10-11T22:01:34.947Z,15.90
2018-10-11T22:04:03.915Z,15.80
2018-10-11T22:06:32.471Z,15.80
2018-10-11T22:09:00.809Z,15.80
2018-10-11T22:11:29.600Z,15.80
2018-10-11T22:13:58.602Z,15.80
2018-10-11T22:16:27.470Z,15.80
2018-10-11T22:18:56.490Z,15.70
2018-10-11T22:21:25.255Z,15.70
2018-10-11T22:23:53.889Z,15.70
2018-10-11T22:26:22.239Z,15.70
2018-10-11T22:28:51.260Z,15.70
2018-10-11T22:31:20.614Z,15.70
2018-10-11T22:33:49.279Z,15.60
2018-10-11T22:36:17.693Z,15.60
2018-10-11T22:38:46.535Z,15.60
2018-10-11T22:41:15.061Z,15.60
2018-10-11T22:43:43.634Z,15.50
2018-10-11T22:46:13.145Z,15.50
2018-10-11T22:48:42.650Z,15.60
2018-10-11T22:51:11.533Z,15.60
2018-10-11T22:53:40.501Z,15.60
2018-10-11T22:56:09.301Z,15.50
2018-10-11T22:58:37.766Z,15.50
2018-10-11T23:01:05.926Z,15.50
2018-10-11T23:03:35.149Z,15.50
2018-10-11T23:06:04.078Z,15.50
2018-10-11T23:08:33.296Z,15.40
2018-10-11T23:11:02.230Z,15.40
2018-10-11T23:13:31.353Z,15.40
2018-10-11T23:15:59.755Z,15.40
2018-10-11T23:18:28.889Z,15.40
2018-10-11T23:20:58.377Z,15.40
2018-10-11T23:23:27.228Z,15.40
2018-10-11T23:25:55.669Z,15.50
2018-10-11T23:28:24.770Z,15.50
2018-10-11T23:30:53.887Z,15.50
2018-10-11T23:33:23.023Z,15.40
2018-10-11T23:35:51.626Z,15.40
2018-10-11T23:38:20.421Z,15.40
2018-10-11T23:40:49.737Z,15.40
2018-10-11T23:43:18.266Z,15.40
2018-10-11T23:45:47.520Z,15.40
2018-10-11T23:48:15.785Z,15.40
2018-10-11T23:50:43.887Z,15.30
2018-10-11T23:53:13.069Z,15.30
2018-10-11T23:55:42.093Z,15.30
2018-10-11T23:58:11.143Z,15.20
